Time;durP1;ratioP1;P1;durP2;ratioP2;P2;SDS_P1;SDS_P2;PMS_P1;PMS_P2;Temp;Humidity;BMP_temperature;BMP_pressure;BME280_temperature;BME280_humidity;BME280_pressure;Samples;Min_cycle;Max_cycle;Signal;HPM_P1;HPM_P2
2022/10/26 00:01:25;;;;;;;5.90;1.85;;;;;;;11.95;100.00;100928.72;4831738;29;20057;-73
2022/10/26 00:03:55;;;;;;;5.45;1.95;;;;;;;11.93;100.00;100934.72;4833996;29;20078;-80
2022/10/26 00:06:25;;;;;;;4.75;1.67;;;;;;;11.91;100.00;100921.72;4829375;29;20054;-82
2022/10/26 00:08:57;;;;;;;3.42;1.40;;;;;;;11.88;100.00;100925.94;4830713;29;20054;-77
2022/10/26 00:11:25;;;;;;;4.53;1.23;;;;;;;11.84;100.00;100929.25;4830701;29;20052;-76
2022/10/26 00:13:54;;;;;;;3.40;1.10;;;;;;;11.83;100.00;100938.75;4834259;29;20622;-73
2022/10/26 00:16:25;;;;;;;3.60;1.42;;;;;;;11.81;100.00;100934.34;4838263;29;20484;-79
2022/10/26 00:18:53;;;;;;;8.20;1.13;;;;;;;11.77;100.00;100927.31;4832798;29;20065;-76
2022/10/26 00:21:22;;;;;;;8.43;1.40;;;;;;;11.71;100.00;100928.06;4834341;29;20054;-75
2022/10/26 00:23:50;;;;;;;1.67;0.82;;;;;;;11.67;100.00;100919.28;4834561;29;20068;-78
2022/10/26 00:26:21;;;;;;;4.10;0.95;;;;;;;11.63;100.00;100925.22;4838124;29;20110;-75
2022/10/26 00:28:50;;;;;;;3.00;0.73;;;;;;;11.63;100.00;100919.16;4834186;29;20045;-74
2022/10/26 00:31:18;;;;;;;1.80;0.60;;;;;;;11.62;100.00;100913.13;4835959;29;20552;-74
2022/10/26 00:33:47;;;;;;;2.75;0.95;;;;;;;11.64;100.00;100915.75;4836804;29;20511;-75
2022/10/26 00:36:17;;;;;;;9.63;1.48;;;;;;;11.64;100.00;100905.41;4836572;29;20737;-78
2022/10/26 00:38:57;;;;;;;5.57;0.70;;;;;;;11.66;100.00;100908.88;4832469;29;20420;-73
2022/10/26 00:41:30;;;;;;;1.48;0.50;;;;;;;11.64;100.00;100913.16;4834957;29;20057;-73
2022/10/26 00:43:59;;;;;;;5.72;1.27;;;;;;;11.62;100.00;100907.94;4837171;29;20464;-73
2022/10/26 00:46:31;;;;;;;3.88;1.08;;;;;;;11.62;100.00;100912.25;4836688;29;20056;-73
2022/10/26 00:49:02;;;;;;;6.22;0.85;;;;;;;11.59;100.00;100923.41;4836872;29;20612;-73
2022/10/26 00:51:34;;;;;;;3.58;1.10;;;;;;;11.59;100.00;100928.59;4835375;29;20046;-72
2022/10/26 00:54:06;;;;;;;5.17;1.10;;;;;;;11.57;100.00;100945.81;4834617;29;20125;-74
2022/10/26 00:56:36;;;;;;;2.43;1.00;;;;;;;11.49;100.00;100930.03;4830200;29;20305;-73
2022/10/26 00:59:08;;;;;;;1.63;0.77;;;;;;;11.46;100.00;100942.91;4836776;29;20050;-73
2022/10/26 01:01:40;;;;;;;4.50;1.50;;;;;;;11.42;100.00;100935.88;4835271;29;20547;-74
2022/10/26 01:04:09;;;;;;;1.67;0.90;;;;;;;11.35;100.00;100923.56;4837086;29;20054;-73
2022/10/26 01:06:39;;;;;;;3.60;1.00;;;;;;;11.31;100.00;100945.03;4830355;29;20050;-76
2022/10/26 01:09:07;;;;;;;3.05;0.65;;;;;;;11.30;100.00;100953.66;4836958;29;20504;-75
2022/10/26 01:11:38;;;;;;;3.33;0.77;;;;;;;11.24;100.00;100963.81;4829131;29;20068;-76
2022/10/26 01:14:10;;;;;;;1.20;0.60;;;;;;;11.20;100.00;100972.31;4830889;29;20133;-75
2022/10/26 01:16:57;;;;;;;4.40;0.70;;;;;;;11.13;100.00;100972.97;4833818;29;20073;-77
2022/10/26 01:20:02;;;;;;;1.70;0.70;;;;;;;11.13;100.00;100978.16;4838152;29;20090;-76
2022/10/26 01:22:37;;;;;;;6.05;0.80;;;;;;;11.08;100.00;100962.47;4835452;29;20422;-76
2022/10/26 01:25:17;;;;;;;2.00;0.55;;;;;;;10.93;100.00;100939.59;4834985;29;20053;-75
2022/10/26 01:27:50;;;;;;;2.22;0.50;;;;;;;10.84;100.00;100934.13;4838579;29;20956;-73
2022/10/26 01:30:32;;;;;;;1.40;0.40;;;;;;;10.74;100.00;100911.38;4834461;29;20053;-76
2022/10/26 01:33:33;;;;;;;0.40;0.30;;;;;;;10.63;100.00;100896.41;4834593;29;20053;-74
2022/10/26 01:36:10;;;;;;;0.30;0.10;;;;;;;10.47;99.27;100904.50;4819598;29;20138;-75
2022/10/26 01:38:48;;;;;;;0.88;0.65;;;;;;;10.37;99.57;100907.59;4836904;29;20039;-75
2022/10/26 01:41:24;;;;;;;0.75;0.40;;;;;;;10.34;99.28;100897.16;4837099;29;20057;-76
2022/10/26 01:43:56;;;;;;;0.28;0.20;;;;;;;10.23;99.20;100896.78;4837473;29;20548;-73
2022/10/26 01:46:27;;;;;;;;;;;;;;;10.19;99.52;100882.88;4836089;29;20049;-73
2022/10/26 01:49:02;;;;;;;0.47;0.20;;;;;;;10.16;99.50;100867.25;4832807;29;20439;-72
2022/10/26 01:51:32;;;;;;;0.52;0.20;;;;;;;10.16;99.76;100868.97;4836876;29;20512;-72
2022/10/26 01:54:01;;;;;;;2.55;0.47;;;;;;;10.11;100.00;100866.22;4837031;29;20527;-71
2022/10/26 01:56:33;;;;;;;1.27;0.45;;;;;;;10.04;100.00;100870.31;4835044;29;20050;-72
2022/10/26 01:59:38;;;;;;;1.88;0.20;;;;;;;9.98;100.00;100864.06;4832730;29;20114;-72
2022/10/26 02:02:39;;;;;;;1.85;0.30;;;;;;;9.94;100.00;100851.84;4833757;29;20536;-71
2022/10/26 02:05:28;;;;;;;1.55;0.40;;;;;;;9.90;100.00;100860.34;4819964;29;20049;-71
2022/10/26 02:08:08;;;;;;;1.45;0.40;;;;;;;9.83;100.00;100865.28;4828123;29;20129;-71
2022/10/26 02:10:55;;;;;;;0.45;0.20;;;;;;;9.81;100.00;100866.94;4835981;29;20056;-71
2022/10/26 02:13:34;;;;;;;0.95;0.40;;;;;;;9.76;100.00;100870.22;4835372;29;20127;-71
2022/10/26 02:16:13;;;;;;;1.40;0.30;;;;;;;9.70;100.00;100873.44;4831374;29;20068;-74
2022/10/26 02:18:52;;;;;;;0.45;0.28;;;;;;;9.62;100.00;100880.03;4833746;29;20061;-74
2022/10/26 02:21:25;;;;;;;0.28;0.20;;;;;;;9.53;100.00;100877.13;4834228;29;20467;-72
2022/10/26 02:23:56;;;;;;;0.85;0.38;;;;;;;9.46;100.00;100883.81;4833524;29;20416;-72
2022/10/26 02:26:28;;;;;;;0.70;0.30;;;;;;;9.40;100.00;100879.28;4834240;29;20054;-71
2022/10/26 02:29:02;;;;;;;4.80;0.50;;;;;;;9.37;100.00;100886.94;4831731;29;20501;-72
2022/10/26 02:31:33;;;;;;;1.95;0.20;;;;;;;9.34;100.00;100889.38;4834875;29;20060;-72
2022/10/26 02:34:07;;;;;;;0.40;0.30;;;;;;;9.31;100.00;100886.69;4836475;29;20439;-74
2022/10/26 02:36:39;;;;;;;2.45;0.43;;;;;;;9.31;100.00;100902.19;4830514;29;20062;-73
2022/10/26 02:39:10;;;;;;;2.42;0.45;;;;;;;9.29;100.00;100901.25;4837520;29;20068;-72
2022/10/26 02:41:42;;;;;;;0.57;0.40;;;;;;;9.30;100.00;100908.19;4833796;29;20057;-73
2022/10/26 02:44:17;;;;;;;0.32;0.20;;;;;;;9.29;100.00;100905.53;4825499;29;20119;-74
2022/10/26 02:46:46;;;;;;;3.65;0.50;;;;;;;9.26;100.00;100905.44;4828997;29;20493;-72
2022/10/26 02:49:17;;;;;;;0.20;0.20;;;;;;;9.23;100.00;100898.44;4833912;29;20057;-73
2022/10/26 02:51:50;;;;;;;0.57;0.22;;;;;;;9.22;100.00;100902.72;4835256;29;20062;-74
2022/10/26 02:54:27;;;;;;;0.47;0.30;;;;;;;9.23;100.00;100906.19;4839774;29;20420;-73
2022/10/26 02:57:00;;;;;;;0.80;0.45;;;;;;;9.26;100.00;100906.31;4836102;29;20465;-73
2022/10/26 02:59:30;;;;;;;;;;;;;;;9.29;100.00;100906.41;4836324;29;20368;-71
2022/10/26 03:01:59;;;;;;;1.70;0.63;;;;;;;9.31;100.00;100916.81;4834751;29;19924;-70
2022/10/26 03:04:34;;;;;;;0.17;0.17;;;;;;;9.29;100.00;100909.00;4835255;29;20046;-70
2022/10/26 03:07:03;;;;;;;1.80;0.52;;;;;;;9.28;100.00;100912.41;4832652;29;20058;-70
2022/10/26 03:09:31;;;;;;;1.05;0.60;;;;;;;9.25;100.00;100903.66;4837447;29;20053;-70
2022/10/26 03:12:00;;;;;;;0.82;0.50;;;;;;;9.22;100.00;100904.44;4838997;29;20061;-70
2022/10/26 03:14:28;;;;;;;1.55;0.32;;;;;;;9.21;100.00;100903.56;4832363;29;20596;-71
2022/10/26 03:16:57;;;;;;;1.65;0.43;;;;;;;9.15;100.00;100903.31;4830712;29;20105;-70
2022/10/26 03:19:25;;;;;;;1.23;0.73;;;;;;;9.12;100.00;100898.06;4829984;29;20057;-71
2022/10/26 03:21:55;;;;;;;0.40;0.40;;;;;;;9.12;100.00;100907.50;4832003;29;20093;-71
2022/10/26 03:24:24;;;;;;;6.15;0.60;;;;;;;9.13;100.00;100899.78;4832345;29;20568;-71
2022/10/26 03:26:52;;;;;;;0.95;0.75;;;;;;;9.15;100.00;100892.13;4833706;29;20057;-71
2022/10/26 03:29:21;;;;;;;0.98;0.68;;;;;;;9.19;100.00;100899.16;4835369;29;20450;-70
2022/10/26 03:31:53;;;;;;;0.73;0.50;;;;;;;9.20;100.00;100911.22;4832834;29;20054;-70
2022/10/26 03:34:21;;;;;;;2.38;0.80;;;;;;;9.15;100.00;100917.94;4833331;29;20572;-71
2022/10/26 03:36:50;;;;;;;5.97;0.70;;;;;;;9.16;100.00;100930.00;4832139;29;20062;-72
2022/10/26 03:39:20;;;;;;;2.65;0.85;;;;;;;9.16;100.00;100935.16;4835465;29;20073;-72
2022/10/26 03:41:49;;;;;;;2.17;1.10;;;;;;;9.16;100.00;100927.44;4832278;29;20428;-73
2022/10/26 03:44:17;;;;;;;1.70;0.70;;;;;;;9.11;100.00;100900.56;4832042;29;20049;-73
2022/10/26 03:46:46;;;;;;;1.27;0.50;;;;;;;9.04;100.00;100889.13;4832707;29;20440;-73
2022/10/26 03:49:14;;;;;;;3.05;1.02;;;;;;;8.97;100.00;100882.84;4827552;29;20054;-72
2022/10/26 03:51:43;;;;;;;1.70;0.80;;;;;;;8.92;100.00;100879.22;4828675;29;20058;-74
2022/10/26 03:54:11;;;;;;;1.60;0.80;;;;;;;8.91;100.00;100885.22;4831048;29;20069;-77
2022/10/26 03:56:42;;;;;;;1.23;0.90;;;;;;;8.92;100.00;100886.09;4829199;29;20497;-73
2022/10/26 03:59:10;;;;;;;2.40;0.90;;;;;;;8.93;100.00;100888.75;4833225;29;20054;-73
2022/10/26 04:01:39;;;;;;;2.88;0.93;;;;;;;8.94;100.00;100887.91;4832620;29;20049;-72
2022/10/26 04:04:08;;;;;;;0.73;0.60;;;;;;;8.95;100.00;100893.94;4835581;29;20058;-71
2022/10/26 04:06:36;;;;;;;2.75;0.70;;;;;;;8.95;100.00;100896.53;4828035;29;20153;-70
2022/10/26 04:09:07;;;;;;;2.38;0.93;;;;;;;8.94;100.00;100887.03;4833444;29;20065;-71
2022/10/26 04:11:35;;;;;;;2.35;0.70;;;;;;;8.97;100.00;100902.63;4834202;29;20053;-70
2022/10/26 04:14:05;;;;;;;1.52;0.80;;;;;;;8.94;100.00;100898.22;4835634;29;20129;-71
2022/10/26 04:16:34;;;;;;;2.15;1.05;;;;;;;8.94;100.00;100898.22;4836258;29;20508;-70
2022/10/26 04:19:03;;;;;;;1.45;0.88;;;;;;;8.95;100.00;100904.25;4834380;29;20054;-73
2022/10/26 04:21:32;;;;;;;1.33;0.80;;;;;;;8.96;100.00;100896.59;4831601;29;20496;-70
2022/10/26 04:24:00;;;;;;;2.28;0.80;;;;;;;8.96;100.00;100900.88;4833564;29;20129;-71
2022/10/26 04:26:29;;;;;;;1.70;0.88;;;;;;;8.92;100.00;100899.00;4828121;29;20057;-72
2022/10/26 04:28:58;;;;;;;4.05;1.30;;;;;;;8.87;100.00;100905.69;4833544;29;20050;-73
2022/10/26 04:31:28;;;;;;;4.63;0.82;;;;;;;8.86;100.00;100915.09;4831736;29;20054;-74
2022/10/26 04:33:56;;;;;;;2.88;1.02;;;;;;;8.90;100.00;100906.66;4833836;29;20496;-75
2022/10/26 04:36:25;;;;;;;1.10;0.77;;;;;;;8.81;100.00;100888.25;4832566;29;20718;-73
2022/10/26 04:38:53;;;;;;;1.55;0.80;;;;;;;8.92;100.00;100911.91;4831434;29;20425;-71
2022/10/26 04:41:22;;;;;;;1.20;0.80;;;;;;;8.94;100.00;100926.63;4832525;29;20054;-74
2022/10/26 04:43:51;;;;;;;1.30;1.13;;;;;;;8.95;100.00;100945.56;4830179;29;20054;-76
2022/10/26 04:46:19;;;;;;;4.20;1.90;;;;;;;8.96;100.00;100953.38;4828844;29;20174;-74
2022/10/26 04:48:50;;;;;;;2.47;1.27;;;;;;;8.98;100.00;100950.84;4835965;29;20050;-73
2022/10/26 04:51:19;;;;;;;5.68;1.30;;;;;;;8.99;100.00;100950.91;4835637;29;20050;-74
2022/10/26 04:53:48;;;;;;;2.80;1.50;;;;;;;8.98;100.00;100941.41;4826777;29;20368;-74
2022/10/26 04:56:16;;;;;;;1.95;1.20;;;;;;;8.94;100.00;100944.69;4836411;29;20807;-73
2022/10/26 04:58:45;;;;;;;8.95;1.20;;;;;;;8.87;100.00;100932.38;4836478;29;20114;-75
2022/10/26 05:01:13;;;;;;;1.42;1.15;;;;;;;8.83;100.00;100925.31;4834757;29;20058;-75
2022/10/26 05:03:42;;;;;;;1.70;1.00;;;;;;;8.80;100.00;100933.81;4831198;29;20068;-75
2022/10/26 05:06:12;;;;;;;4.63;1.73;;;;;;;8.77;100.00;100937.97;4835574;29;20049;-76
2022/10/26 05:08:40;;;;;;;2.72;1.23;;;;;;;8.74;100.00;100937.84;4838097;29;20054;-75
2022/10/26 05:11:09;;;;;;;2.78;1.20;;;;;;;8.74;100.00;100932.69;4837895;29;20091;-75
2022/10/26 05:13:37;;;;;;;1.77;0.98;;;;;;;8.73;100.00;100934.41;4839856;29;20572;-75
2022/10/26 05:16:07;;;;;;;2.30;1.30;;;;;;;8.75;100.00;100939.59;4827974;29;20067;-75
2022/10/26 05:18:35;;;;;;;1.13;0.90;;;;;;;8.77;100.00;100931.13;4825217;29;20066;-74
2022/10/26 05:21:04;;;;;;;2.67;1.13;;;;;;;8.80;100.00;100917.47;4834719;29;20802;-75
2022/10/26 05:23:34;;;;;;;2.08;0.93;;;;;;;8.80;100.00;100917.47;4830333;29;20066;-75
2022/10/26 05:26:03;;;;;;;1.33;0.88;;;;;;;8.77;100.00;100917.31;4830581;29;20062;-74
2022/10/26 05:28:32;;;;;;;1.60;0.82;;;;;;;8.71;100.00;100917.09;4844175;29;20527;-74
2022/10/26 05:31:00;;;;;;;1.27;0.95;;;;;;;8.68;100.00;100925.59;4832322;29;20070;-77
2022/10/26 05:33:29;;;;;;;3.80;0.93;;;;;;;8.69;100.00;100929.94;4841968;29;20057;-76
2022/10/26 05:35:57;;;;;;;0.80;0.57;;;;;;;8.65;100.00;100920.31;4849078;29;20053;-76
2022/10/26 05:38:26;;;;;;;0.95;0.88;;;;;;;8.64;100.00;100925.44;4838900;29;20679;-78
2022/10/26 05:40:56;;;;;;;1.27;0.80;;;;;;;8.66;100.00;100926.34;4829526;29;20054;-77
2022/10/26 05:43:26;;;;;;;1.20;1.00;;;;;;;8.65;100.00;100929.75;4833549;29;20050;-76
2022/10/26 05:45:54;;;;;;;2.70;1.20;;;;;;;8.66;100.00;100927.25;4837974;29;20061;-76
2022/10/26 05:48:23;;;;;;;1.77;0.85;;;;;;;8.60;100.00;100917.53;4832662;29;20929;-77
2022/10/26 05:50:52;;;;;;;1.58;0.90;;;;;;;8.58;100.00;100918.31;4836843;29;20058;-76
2022/10/26 05:53:20;;;;;;;2.10;0.77;;;;;;;8.56;100.00;100920.81;4838212;29;20120;-76
2022/10/26 05:55:50;;;;;;;1.15;0.73;;;;;;;8.58;100.00;100936.34;4831152;29;20069;-76
2022/10/26 05:58:21;;;;;;;1.77;0.85;;;;;;;8.59;100.00;100941.59;4840314;29;20196;-77
2022/10/26 06:01:02;;;;;;;0.90;0.60;;;;;;;8.59;100.00;100936.44;4835774;29;20057;-76
2022/10/26 06:03:44;;;;;;;1.55;0.90;;;;;;;8.59;100.00;100951.91;4825606;29;20062;-76
2022/10/26 06:06:13;;;;;;;2.72;0.95;;;;;;;8.56;100.00;100956.03;4835903;29;20058;-76
2022/10/26 06:08:43;;;;;;;2.33;0.90;;;;;;;8.56;100.00;100964.66;4841324;29;20149;-75
2022/10/26 06:11:12;;;;;;;1.55;1.05;;;;;;;8.55;100.00;100975.81;4828008;29;20081;-76
2022/10/26 06:13:43;;;;;;;0.93;0.60;;;;;;;8.54;100.00;100981.78;4839990;29;20057;-76
2022/10/26 06:16:30;;;;;;;1.55;0.95;;;;;;;8.56;100.00;100989.56;4834682;29;21061;-76
2022/10/26 06:19:10;;;;;;;1.23;0.70;;;;;;;8.56;100.00;100987.88;4836690;29;20061;-76
2022/10/26 06:21:57;;;;;;;3.45;1.00;;;;;;;8.55;100.00;100988.69;4835586;29;20110;-75
2022/10/26 06:24:34;;;;;;;2.58;0.98;;;;;;;8.55;100.00;100995.56;4835181;29;20050;-74
2022/10/26 06:27:13;;;;;;;5.22;2.25;;;;;;;8.49;100.00;100991.00;4836505;29;20118;-75
2022/10/26 06:29:53;;;;;;;3.00;1.35;;;;;;;8.57;100.00;100981.91;4839265;29;20089;-77
2022/10/26 06:32:24;;;;;;;2.70;0.80;;;;;;;8.54;100.00;100979.22;4839004;29;20057;-77
2022/10/26 06:34:57;;;;;;;1.52;0.70;;;;;;;8.50;100.00;100989.34;4832109;29;20081;-76
2022/10/26 06:37:26;;;;;;;1.75;0.95;;;;;;;8.46;100.00;101001.22;4837215;29;20115;-76
2022/10/26 06:39:58;;;;;;;1.52;0.90;;;;;;;8.45;100.00;100999.44;4833023;29;20057;-77
2022/10/26 06:42:27;;;;;;;2.20;0.65;;;;;;;8.45;100.00;101003.72;4835983;29;20516;-77
2022/10/26 06:44:58;;;;;;;1.27;0.88;;;;;;;8.46;100.00;101003.78;4837180;29;20061;-77
2022/10/26 06:47:34;;;;;;;1.80;0.55;;;;;;;8.46;100.00;100993.47;4830393;29;20054;-77
2022/10/26 06:50:10;;;;;;;1.75;0.70;;;;;;;8.47;100.00;100995.22;4829076;29;20051;-77
2022/10/26 06:52:44;;;;;;;1.10;0.50;;;;;;;8.45;100.00;100996.84;4828176;29;20489;-77
2022/10/26 06:55:16;;;;;;;1.58;0.88;;;;;;;8.44;100.00;100995.09;4828542;29;20069;-76
2022/10/26 06:57:45;;;;;;;1.83;0.70;;;;;;;8.46;100.00;100995.19;4827848;29;20081;-76
2022/10/26 07:00:21;;;;;;;2.67;0.80;;;;;;;8.45;100.00;100999.44;4838063;29;20058;-76
2022/10/26 07:02:50;;;;;;;1.80;0.65;;;;;;;8.41;100.00;101007.88;4836239;29;20137;-76
2022/10/26 07:05:19;;;;;;;1.33;0.85;;;;;;;8.42;100.00;101017.38;4832901;29;20054;-76
2022/10/26 07:07:48;;;;;;;1.45;0.45;;;;;;;8.42;100.00;101012.22;4829078;29;20061;-76
2022/10/26 07:10:17;;;;;;;2.05;0.40;;;;;;;8.41;100.00;101012.13;4828342;29;20098;-76
2022/10/26 07:12:45;;;;;;;0.47;0.35;;;;;;;8.40;100.00;101006.09;4827749;29;20061;-76
2022/10/26 07:15:14;;;;;;;1.20;0.80;;;;;;;8.38;100.00;101012.84;4833719;29;20517;-75
2022/10/26 07:17:49;;;;;;;1.13;0.70;;;;;;;8.39;100.00;101018.09;4834505;29;20081;-76
2022/10/26 07:20:22;;;;;;;0.65;0.52;;;;;;;8.39;100.00;101020.66;4828005;29;20062;-76
2022/10/26 07:22:53;;;;;;;0.85;0.40;;;;;;;8.38;100.00;101023.16;4835682;29;20050;-75
2022/10/26 07:25:22;;;;;;;3.08;0.88;;;;;;;8.38;100.00;101011.19;4835131;29;20049;-76
2022/10/26 07:27:51;;;;;;;0.40;0.40;;;;;;;8.36;100.00;100999.91;4836801;29;20050;-76
2022/10/26 07:30:19;;;;;;;1.05;0.75;;;;;;;8.33;100.00;101014.38;4834827;29;20540;-76
2022/10/26 07:32:50;;;;;;;1.27;0.60;;;;;;;8.29;100.00;101007.31;4836521;29;20122;-77
2022/10/26 07:35:18;;;;;;;0.63;0.40;;;;;;;8.27;100.00;101008.94;4835269;29;20054;-76
2022/10/26 07:37:47;;;;;;;0.77;0.65;;;;;;;8.29;100.00;101018.53;4833316;29;20049;-77
2022/10/26 07:40:15;;;;;;;1.13;0.77;;;;;;;8.25;100.00;101002.88;4833571;29;20097;-76
2022/10/26 07:42:44;;;;;;;3.22;0.70;;;;;;;8.31;100.00;101005.69;4833509;29;20495;-76
2022/10/26 07:45:12;;;;;;;2.05;0.50;;;;;;;8.31;100.00;101010.84;4834191;29;20067;-77
2022/10/26 07:47:41;;;;;;;3.75;0.95;;;;;;;8.34;100.00;101018.72;4834383;29;20533;-76
2022/10/26 07:50:12;;;;;;;1.13;0.70;;;;;;;8.36;100.00;101022.22;4831421;29;20073;-77
2022/10/26 07:52:40;;;;;;;1.67;0.82;;;;;;;8.39;100.00;101019.78;4833100;29;20077;-77
2022/10/26 07:55:10;;;;;;;2.28;1.02;;;;;;;8.42;100.00;101019.06;4836560;29;20061;-77
2022/10/26 07:57:39;;;;;;;2.15;0.60;;;;;;;8.46;100.00;101016.69;4839214;29;20056;-76
2022/10/26 08:00:10;;;;;;;1.35;0.77;;;;;;;8.50;100.00;101022.88;4835211;29;20057;-76
2022/10/26 08:02:38;;;;;;;2.45;0.60;;;;;;;8.52;100.00;101026.38;4835077;29;20047;-76
2022/10/26 08:05:08;;;;;;;1.88;0.80;;;;;;;8.54;100.00;101025.63;4827407;29;20552;-76
2022/10/26 08:07:43;;;;;;;0.95;0.85;;;;;;;8.53;100.00;101038.47;4838817;29;20501;-76
2022/10/26 08:10:11;;;;;;;1.05;0.70;;;;;;;8.52;100.00;101028.94;4838524;29;20061;-77
2022/10/26 08:12:40;;;;;;;1.05;0.52;;;;;;;8.50;100.00;101034.06;4834058;29;20054;-77
2022/10/26 08:15:10;;;;;;;1.45;0.77;;;;;;;8.50;100.00;101034.06;4833898;29;20111;-76
2022/10/26 08:17:38;;;;;;;2.38;1.00;;;;;;;8.48;100.00;101025.38;4826355;29;20050;-76
2022/10/26 08:20:07;;;;;;;2.42;0.60;;;;;;;8.48;100.00;101027.94;4838457;29;20118;-76
2022/10/26 08:22:38;;;;;;;1.83;0.80;;;;;;;8.49;100.00;101029.69;4833519;29;20042;-76
2022/10/26 08:25:07;;;;;;;3.67;0.90;;;;;;;8.46;100.00;101032.16;4836928;29;20046;-77
2022/10/26 08:27:35;;;;;;;1.75;0.85;;;;;;;8.45;100.00;101040.69;4839713;29;20107;-76
2022/10/26 08:30:04;;;;;;;0.80;0.57;;;;;;;8.47;100.00;101035.63;4837574;29;20541;-77
2022/10/26 08:32:32;;;;;;;2.97;0.90;;;;;;;8.50;100.00;101034.06;4834296;29;20110;-78
2022/10/26 08:35:01;;;;;;;2.05;0.65;;;;;;;8.48;100.00;101043.44;4838079;29;20501;-77
2022/10/26 08:37:29;;;;;;;1.52;0.60;;;;;;;8.44;100.00;101044.09;4832943;29;20100;-77
2022/10/26 08:39:59;;;;;;;1.65;0.50;;;;;;;8.43;100.00;101038.88;4830945;29;20079;-76
2022/10/26 08:42:34;;;;;;;4.70;0.70;;;;;;;8.45;100.00;101043.28;4837003;29;20606;-76
2022/10/26 08:45:05;;;;;;;7.88;1.15;;;;;;;8.46;100.00;101052.78;4835422;29;20042;-77
2022/10/26 08:47:38;;;;;;;3.00;1.33;;;;;;;8.47;100.00;101054.53;4838779;29;20277;-77
2022/10/26 08:50:14;;;;;;;1.00;0.43;;;;;;;8.47;100.00;101051.97;4840076;29;20049;-77
2022/10/26 08:52:48;;;;;;;1.20;0.70;;;;;;;8.43;100.00;101047.50;4838335;29;20080;-76
2022/10/26 08:55:21;;;;;;;2.80;0.40;;;;;;;8.40;100.00;101047.34;4834390;29;20061;-77
2022/10/26 08:57:52;;;;;;;0.75;0.13;;;;;;;8.44;100.00;101049.25;4829736;29;20057;-76
2022/10/26 09:00:23;;;;;;;4.57;1.10;;;;;;;8.45;100.00;101042.41;4837345;29;20063;-76
2022/10/26 09:02:52;;;;;;;0.55;0.50;;;;;;;8.47;100.00;101049.38;4834064;29;20129;-76
2022/10/26 09:05:30;;;;;;;4.13;0.50;;;;;;;8.48;100.00;101046.00;4837172;29;20050;-75
2022/10/26 09:08:08;;;;;;;1.45;0.47;;;;;;;8.38;100.00;101023.16;4833593;29;20125;-76
2022/10/26 09:10:54;;;;;;;8.00;0.50;;;;;;;8.47;100.00;101044.22;4834017;29;20569;-76
2022/10/26 09:13:28;;;;;;;3.38;0.75;;;;;;;8.47;100.00;101044.22;4837160;29;20140;-76
2022/10/26 09:16:07;;;;;;;2.67;0.70;;;;;;;8.50;100.00;101049.53;4837586;29;20118;-75
2022/10/26 09:18:47;;;;;;;0.57;0.30;;;;;;;8.53;100.00;101052.22;4835707;29;20045;-76
2022/10/26 09:21:29;;;;;;;0.98;0.40;;;;;;;8.58;100.00;101053.28;4837413;29;20166;-75
2022/10/26 09:24:05;;;;;;;1.33;0.50;;;;;;;8.60;100.00;101062.00;4838395;29;20108;-75
2022/10/26 09:26:42;;;;;;;4.68;0.63;;;;;;;8.59;100.00;101065.41;4837750;29;20716;-75
2022/10/26 09:29:14;;;;;;;1.00;0.40;;;;;;;8.56;100.00;101065.25;4841864;29;20768;-76
2022/10/26 09:31:45;;;;;;;5.40;0.60;;;;;;;8.52;100.00;101065.97;4839679;29;20057;-75
2022/10/26 09:34:26;;;;;;;1.02;0.77;;;;;;;8.52;100.00;101071.13;4835298;29;20058;-75
2022/10/26 09:36:57;;;;;;;0.50;0.47;;;;;;;8.54;100.00;101071.16;4825730;29;20053;-75
2022/10/26 09:39:36;;;;;;;0.75;0.55;;;;;;;8.55;100.00;101081.56;4832906;29;20046;-75
2022/10/26 09:42:17;;;;;;;0.90;0.60;;;;;;;8.54;100.00;101090.13;4832549;29;20054;-75
2022/10/26 09:44:53;;;;;;;1.27;0.50;;;;;;;8.52;100.00;101086.59;4833010;29;20161;-76
2022/10/26 09:47:32;;;;;;;2.42;0.60;;;;;;;8.52;100.00;101099.47;4837886;29;20449;-75
2022/10/26 09:50:07;;;;;;;3.40;0.43;;;;;;;8.51;100.00;101102.88;4831251;29;20066;-75
2022/10/26 09:52:36;;;;;;;1.85;0.45;;;;;;;8.49;100.00;101112.22;4832066;29;20058;-74
2022/10/26 09:55:05;;;;;;;1.17;0.45;;;;;;;8.47;100.00;101121.59;4836241;29;20058;-74
2022/10/26 09:57:35;;;;;;;0.22;0.20;;;;;;;8.45;100.00;101142.97;4833258;29;20061;-74
2022/10/26 10:00:05;;;;;;;1.27;0.55;;;;;;;8.42;100.00;101143.72;4833842;29;20054;-74
2022/10/26 10:02:38;;;;;;;2.22;0.50;;;;;;;8.39;100.00;101143.56;4836554;29;20050;-74
2022/10/26 10:05:25;;;;;;;0.82;0.40;;;;;;;8.38;100.00;101146.94;4835417;29;20050;-74
2022/10/26 10:08:10;;;;;;;2.42;0.22;;;;;;;8.33;100.00;101140.69;4836671;29;20563;-74
2022/10/26 10:10:39;;;;;;;0.60;0.47;;;;;;;8.31;100.00;101139.75;4831936;29;20112;-74
2022/10/26 10:13:22;;;;;;;1.45;0.60;;;;;;;8.33;100.00;101153.59;4833751;29;20539;-74
2022/10/26 10:15:54;;;;;;;;;;;;;;;8.32;100.00;101150.13;4837674;29;20053;-75
2022/10/26 10:18:24;;;;;;;0.20;0.13;;;;;;;8.32;100.00;101152.72;4833875;29;19928;-74
2022/10/26 10:20:55;;;;;;;0.52;0.40;;;;;;;8.36;100.00;101154.63;4835071;29;20053;-75
2022/10/26 10:23:30;;;;;;;2.10;0.63;;;;;;;8.38;100.00;101155.56;4835874;29;20129;-74
2022/10/26 10:26:10;;;;;;;0.47;0.47;;;;;;;8.41;100.00;101148.78;4827941;29;20062;-74
2022/10/26 10:28:41;;;;;;;2.53;0.77;;;;;;;8.42;100.00;101159.19;4833561;29;20053;-74
2022/10/26 10:31:21;;;;;;;1.45;0.35;;;;;;;8.39;100.00;101169.34;4837302;29;20061;-74
2022/10/26 10:33:51;;;;;;;1.35;0.55;;;;;;;8.37;100.00;101171.84;4838433;29;20477;-75
2022/10/26 10:36:22;;;;;;;1.60;0.65;;;;;;;8.33;100.00;101185.41;4835695;29;20062;-74
2022/10/26 10:38:52;;;;;;;2.45;0.70;;;;;;;8.25;100.00;101178.16;4838403;29;20050;-74
2022/10/26 10:41:26;;;;;;;0.45;0.45;;;;;;;8.19;100.00;101187.34;4833458;29;20058;-74
2022/10/26 10:44:06;;;;;;;3.88;0.80;;;;;;;8.18;100.00;101182.16;4831488;29;20058;-74
2022/10/26 10:46:36;;;;;;;1.30;0.60;;;;;;;8.16;100.00;101182.06;4830127;29;20053;-73
2022/10/26 10:49:06;;;;;;;1.52;0.57;;;;;;;8.14;100.00;101185.41;4831572;29;20046;-74
2022/10/26 10:51:39;;;;;;;3.63;0.73;;;;;;;8.11;100.00;101195.56;4832527;29;20061;-74
2022/10/26 10:54:22;;;;;;;1.92;0.52;;;;;;;8.09;100.00;101190.34;4835153;29;20127;-74
2022/10/26 10:56:54;;;;;;;1.63;0.73;;;;;;;8.06;100.00;101190.16;4829414;29;20471;-74
2022/10/26 10:59:51;;;;;;;0.57;0.55;;;;;;;8.04;100.00;101189.25;4831237;29;20050;-74
2022/10/26 11:03:12;;;;;;;1.65;0.73;;;;;;;7.96;100.00;101180.25;4826211;29;20042;-75
2022/10/26 11:06:08;;;;;;;0.55;0.40;;;;;;;7.87;100.00;101187.56;4834945;29;20061;-75
2022/10/26 11:08:40;;;;;;;0.90;0.60;;;;;;;7.84;100.00;101182.28;4835387;29;20054;-74
2022/10/26 11:11:12;;;;;;;0.47;0.40;;;;;;;7.80;100.00;101180.34;4830556;29;20509;-74
2022/10/26 11:13:49;;;;;;;1.23;0.45;;;;;;;7.76;100.00;101180.22;4836290;29;20738;-74
2022/10/26 11:16:25;;;;;;;0.63;0.38;;;;;;;7.74;100.00;101176.69;4838219;29;20057;-74
2022/10/26 11:19:05;;;;;;;1.45;0.52;;;;;;;7.72;100.00;101186.03;4828076;29;20057;-74
2022/10/26 11:21:38;;;;;;;0.95;0.40;;;;;;;7.65;100.00;101190.78;4841333;29;20042;-74
2022/10/26 11:24:12;;;;;;;;;;;;;;;7.64;100.00;101189.91;4836791;29;20042;-74
2022/10/26 11:26:46;;;;;;;4.40;0.50;;;;;;;7.61;100.00;101189.78;4833681;29;20288;-74
2022/10/26 11:29:29;;;;;;;1.15;0.43;;;;;;;7.60;100.00;101182.84;4835019;29;20053;-74
2022/10/26 11:32:02;;;;;;;;;;;;;;;7.60;100.00;101190.56;4830661;29;20572;-74
2022/10/26 11:34:38;;;;;;;3.53;0.45;;;;;;;7.59;100.00;101186.25;4827548;29;19933;-74
2022/10/26 11:37:14;;;;;;;2.33;0.40;;;;;;;7.55;100.00;101189.47;4833266;29;20073;-74
2022/10/26 11:39:47;;;;;;;1.75;0.47;;;;;;;7.49;100.00;101195.22;4825867;29;20508;-75
2022/10/26 11:42:27;;;;;;;0.47;0.30;;;;;;;7.45;100.00;101197.56;4833058;29;20185;-75
2022/10/26 11:45:02;;;;;;;2.72;0.50;;;;;;;7.45;100.00;101192.41;4818549;29;20112;-75
2022/10/26 11:47:41;;;;;;;1.17;0.57;;;;;;;7.45;100.00;101197.56;4834219;29;20046;-74
2022/10/26 11:50:17;;;;;;;1.50;0.63;;;;;;;7.46;100.00;101207.03;4832614;29;20117;-74